Time;durP1;ratioP1;P1;durP2;ratioP2;P2;SDS_P1;SDS_P2;PMS_P1;PMS_P2;Temp;Humidity;BMP_temperature;BMP_pressure;BME280_temperature;BME280_humidity;BME280_pressure;Samples;Min_cycle;Max_cycle;Signal;HPM_P1;HPM_P2
2022/06/24 00:02:13;;;;;;;;;11.00;11.00;;;;;16.19;71.40;99495.16;6311565;20;2802449;-56
2022/06/24 00:04:41;;;;;;;;;14.00;13.00;;;;;16.08;71.56;99495.25;6284821;20;2797220;-54
2022/06/24 00:07:16;;;;;;;;;10.00;8.33;;;;;15.97;72.43;99498.91;6281669;20;3489816;-51
2022/06/24 00:09:45;;;;;;;;;10.00;10.00;;;;;16.54;69.67;99496.59;6316893;20;2795165;-57
2022/06/24 00:12:19;;;;;;;;;10.00;10.00;;;;;16.65;68.96;99491.06;6281467;20;3510694;-55
2022/06/24 00:15:00;;;;;;;;;13.00;12.00;;;;;16.59;68.89;99494.34;6310637;20;2791079;-55
2022/06/24 00:17:34;;;;;;;;;14.00;12.67;;;;;16.29;70.51;99498.78;6312684;20;2805601;-53
2022/06/24 00:20:09;;;;;;;;;14.00;9.33;;;;;16.06;71.72;99497.22;6311515;20;2778502;-55
2022/06/24 00:22:48;;;;;;;;;9.67;9.67;;;;;15.87;72.24;99506.09;6309022;20;3492964;-54
2022/06/24 00:25:23;;;;;;;;;14.00;12.00;;;;;16.34;70.43;99506.50;6316012;20;2807626;-54
2022/06/24 06:51:54;;;;;;;;;8.00;7.00;;;;;27.06;40.60;99558.66;4538913;20;2750286;-69
2022/06/24 06:54:22;;;;;;;;;8.00;8.00;;;;;27.89;39.90;99555.78;6289123;20;2746102;-69
2022/06/24 06:56:52;;;;;;;;;8.00;8.00;;;;;27.97;38.73;99550.06;6332538;20;2752344;-68
2022/06/24 06:59:20;;;;;;;;;6.33;5.67;;;;;28.09;38.50;99553.03;6276200;20;2738771;-71
2022/06/24 07:01:49;;;;;;;;;5.00;5.00;;;;;28.03;38.14;99554.72;6309987;20;2729483;-71
2022/06/24 07:04:18;;;;;;;;;10.00;10.00;;;;;27.98;36.94;99552.59;6304389;20;3504560;-73
2022/06/24 07:06:47;;;;;;;;;9.33;7.33;;;;;27.90;36.62;99565.75;6305291;20;2746127;-71
2022/06/24 07:09:15;;;;;;;;;9.33;8.33;;;;;28.13;36.64;99554.31;6304205;20;2759667;-71
2022/06/24 07:11:44;;;;;;;;;8.00;8.00;;;;;28.38;36.92;99557.28;6306072;20;2745134;-73
2022/06/24 07:14:13;;;;;;;;;7.20;6.40;;;;;27.54;36.63;99554.00;6329824;20;2743039;-69
2022/06/24 07:16:43;;;;;;;;;4.00;4.00;;;;;27.96;37.07;99545.59;6295171;20;2750267;-68
2022/06/24 07:19:11;;;;;;;;;7.00;5.00;;;;;28.96;35.76;99565.69;6274349;20;2747120;-71
2022/06/24 07:21:41;;;;;;;;;6.00;6.00;;;;;29.51;34.29;99566.16;6330498;20;2723263;-73
2022/06/24 07:24:10;;;;;;;;;6.67;5.67;;;;;28.54;35.13;99559.66;6273325;20;2731507;-72
2022/06/24 07:26:38;;;;;;;;;6.00;6.00;;;;;29.41;34.13;99565.81;6309552;20;2744022;-71
2022/06/24 07:29:12;;;;;;;;;6.67;5.00;;;;;29.47;34.32;99556.59;6306574;20;2767004;-71
2022/06/24 07:31:41;;;;;;;;;8.67;8.00;;;;;29.27;35.28;99555.84;6305162;20;2752334;-70
2022/06/24 07:34:10;;;;;;;;;5.00;5.00;;;;;29.22;34.78;99558.41;6308169;20;2738829;-73
2022/06/24 07:36:38;;;;;;;;;6.67;6.67;;;;;29.79;33.43;99561.38;6307225;20;2739905;-76
2022/06/24 07:39:08;;;;;;;;;8.00;6.67;;;;;29.61;33.78;99559.31;6307553;20;2744025;-71
2022/06/24 07:41:36;;;;;;;;;6.67;5.00;;;;;29.68;33.00;99562.91;6304459;20;2748237;-72
2022/06/24 07:44:05;;;;;;;;;5.33;5.33;;;;;29.59;34.38;99555.91;6306717;20;2743128;-72
2022/06/24 07:46:34;;;;;;;;;5.40;5.40;;;;;29.35;34.60;99561.13;6327857;20;2743008;-72
2022/06/24 07:49:03;;;;;;;;;6.00;6.00;;;;;29.36;33.83;99554.53;6276192;20;2740871;-75
2022/06/24 07:51:33;;;;;;;;;3.60;3.60;;;;;29.16;34.48;99559.31;6331864;20;2736756;-73
2022/06/24 07:54:01;;;;;;;;;5.33;5.00;;;;;28.93;34.59;99549.56;6276501;20;2738769;-72
2022/06/24 07:59:19;;;;;;;;;5.00;5.00;;;;;30.04;33.00;99553.91;6272092;20;2748219;-74
2022/06/24 08:01:48;;;;;;;;;6.67;5.00;;;;;30.38;32.52;99552.59;6305273;20;2748281;-73
2022/06/24 08:04:17;;;;;;;;;5.33;5.33;;;;;30.34;32.35;99545.84;6307114;20;2737310;-73
2022/06/24 08:06:49;;;;;;;;;2.80;2.80;;;;;30.77;31.15;99550.50;6329036;20;2738914;-72
2022/06/24 08:09:23;;;;;;;;;5.67;5.67;;;;;30.78;30.66;99546.69;6273692;20;2746092;-73
2022/06/24 08:11:52;;;;;;;;;4.00;4.00;;;;;30.76;31.40;99539.69;6309085;20;2731529;-74
2022/06/24 08:14:21;;;;;;;;;7.00;5.33;;;;;30.69;31.79;99542.50;6314694;20;2744016;-72
2022/06/24 08:16:49;;;;;;;;;8.00;7.00;;;;;31.12;30.93;99541.59;6305605;20;2736724;-74
2022/06/24 08:19:18;;;;;;;;;4.67;4.33;;;;;30.94;30.37;99533.28;6308957;20;2745152;-70
2022/06/24 08:21:47;;;;;;;;;5.33;5.33;;;;;31.37;30.32;99540.69;6304902;20;2742489;-71
2022/06/24 08:24:15;;;;;;;;;6.00;6.00;;;;;30.66;30.37;99533.81;6306121;20;2737925;-71
2022/06/24 08:26:45;;;;;;;;;5.20;5.00;;;;;31.06;30.22;99542.53;6330680;20;2729475;-69
2022/06/24 08:29:13;;;;;;;;;6.00;6.00;;;;;31.05;30.48;99532.53;6273024;20;2740326;-69
2022/06/24 08:31:42;;;;;;;;;5.33;5.33;;;;;30.84;29.88;99542.16;6304062;20;2739875;-71
2022/06/24 08:34:11;;;;;;;;;4.67;4.67;;;;;30.74;30.12;99528.81;6304656;20;2745044;-71
2022/06/24 08:36:40;;;;;;;;;5.33;5.33;;;;;30.16;30.44;99542.97;6308131;20;2739925;-71
2022/06/24 08:39:08;;;;;;;;;5.67;5.67;;;;;30.28;29.59;99540.34;6308522;20;2737753;-68
2022/06/24 08:41:41;;;;;;;;;6.00;6.00;;;;;30.44;30.30;99538.91;6307314;20;2746221;-71
2022/06/24 08:44:13;;;;;;;;;5.00;5.00;;;;;30.24;31.18;99533.56;6301303;20;2732654;-71
2022/06/24 08:46:42;;;;;;;;;4.67;3.67;;;;;30.43;30.57;99534.47;6306880;20;2743998;-70
2022/06/24 08:49:12;;;;;;;;;5.20;5.00;;;;;30.28;31.38;99520.94;6329261;20;2745050;-71
2022/06/24 08:51:42;;;;;;;;;6.00;4.67;;;;;30.67;30.43;99522.47;6274974;20;2732581;-69
2022/06/24 08:54:12;;;;;;;;;5.00;5.00;;;;;30.05;30.35;99516.03;6306158;20;2747175;-68
2022/06/24 08:56:54;;;;;;;;;3.60;3.60;;;;;30.03;29.50;99518.16;6328817;20;2756478;-70
2022/06/24 08:59:23;;;;;;;;;5.00;5.00;;;;;29.90;30.82;99527.41;6272378;20;2737758;-68
2022/06/24 09:01:51;;;;;;;;;4.00;4.00;;;;;30.64;30.18;99520.16;6307011;20;2737748;-69
2022/06/24 09:04:23;;;;;;;;;4.60;3.80;;;;;31.32;28.53;99508.06;6329144;20;2746219;-69
2022/06/24 09:06:51;;;;;;;;;7.00;5.00;;;;;30.69;29.28;99509.25;6275386;20;2740878;-69
2022/06/24 09:09:25;;;;;;;;;5.00;5.00;;;;;31.03;29.43;99504.19;6304574;20;2735673;-71
2022/06/24 09:11:58;;;;;;;;;5.40;5.40;;;;;31.35;29.14;99503.97;6329089;20;2734646;-70
2022/06/24 09:14:49;;;;;;;;;5.60;3.80;;;;;31.51;28.57;99511.69;6296758;20;2751360;-72
2022/06/24 09:17:28;;;;;;;;;4.33;4.33;;;;;31.42;28.57;99508.41;6276409;20;2752420;-68
2022/06/24 09:20:09;;;;;;;;;5.20;5.20;;;;;31.02;29.09;99510.81;6332978;20;2741935;-70
2022/06/24 09:23:17;;;;;;;;;3.00;2.00;;;;;30.00;29.40;99510.31;6299749;20;2732574;-69
2022/06/24 09:26:02;;;;;;;;;3.80;3.80;;;;;30.72;28.77;99506.00;6298605;20;2739999;-70
2022/06/24 09:28:33;;;;;;;;;5.00;4.00;;;;;31.74;27.92;99504.53;6266846;20;2747137;-68
2022/06/24 09:31:08;;;;;;;;;5.67;5.00;;;;;31.19;27.91;99505.47;6310275;20;2730504;-69
2022/06/24 09:33:44;;;;;;;;;6.00;4.80;;;;;31.22;28.45;99507.78;6326834;20;2748233;-69
2022/06/24 09:36:13;;;;;;;;;6.00;5.00;;;;;31.62;27.82;99508.09;6270197;20;2748164;-66
2022/06/24 09:39:00;;;;;;;;;6.67;5.67;;;;;31.77;27.27;99498.47;6305317;20;2739266;-69
2022/06/24 09:41:29;;;;;;;;;4.00;4.00;;;;;31.96;27.14;99494.56;6304808;20;2747160;-66
2022/06/24 09:44:03;;;;;;;;;6.40;4.00;;;;;31.63;27.11;99495.91;6317234;20;2731549;-65
2022/06/24 09:46:31;;;;;;;;;4.00;4.00;;;;;31.93;27.28;99489.50;6273583;20;2729430;-67
2022/06/24 09:49:26;;;;;;;;;4.00;4.00;;;;;31.64;27.59;99489.28;6310039;20;2609712;-67
2022/06/24 09:51:56;;;;;;;;;5.67;5.00;;;;;31.12;27.74;99497.22;6300802;20;2739947;-67
2022/06/24 09:54:29;;;;;;;;;1.67;1.67;;;;;31.35;28.05;99490.94;6299878;20;2740913;-67
2022/06/24 09:57:00;;;;;;;;;12.33;6.00;;;;;31.55;27.71;99501.81;6301533;20;2749250;-66
2022/06/24 10:02:19;;;;;;;;;6.67;5.33;;;;;31.17;27.51;99494.59;6301784;20;2737780;-66
2022/06/24 10:04:52;;;;;;;;;6.00;5.67;;;;;30.58;27.44;99490.63;6304942;20;2738925;-65
2022/06/24 10:07:25;;;;;;;;;4.00;4.00;;;;;30.86;27.35;99497.56;6326894;20;2752358;-63
2022/06/24 10:10:05;;;;;;;;;5.67;4.00;;;;;31.19;27.11;99498.00;6277097;20;2739919;-64
2022/06/24 10:12:46;;;;;;;;;5.00;5.00;;;;;30.58;27.79;99491.44;6305728;20;2751282;-63
2022/06/24 10:15:18;;;;;;;;;4.80;4.00;;;;;31.05;27.80;99496.50;6325942;20;2739910;-64
2022/06/24 10:17:48;;;;;;;;;4.33;4.33;;;;;31.25;26.18;99488.75;6271823;20;2748327;-64
2022/06/24 10:20:18;;;;;;;;;5.67;5.67;;;;;31.14;26.77;99488.69;6300927;20;2744085;-67
2022/06/24 10:22:50;;;;;;;;;9.00;4.67;;;;;30.32;27.38;99478.72;6292755;20;2748170;-65
2022/06/24 10:25:48;;;;;;;;;5.00;5.00;;;;;30.70;27.83;99477.69;6302392;20;2737864;-63
2022/06/24 10:28:19;;;;;;;;;4.00;4.00;;;;;31.22;26.57;99475.34;6299750;20;2744100;-66
2022/06/24 10:30:47;;;;;;;;;4.00;4.00;;;;;30.83;27.38;99474.78;6306591;20;2747205;-66
2022/06/24 10:33:23;;;;;;;;;4.40;3.60;;;;;31.06;27.26;99473.22;6329298;20;2731514;-66
2022/06/24 10:36:06;;;;;;;;;4.00;4.00;;;;;30.64;28.29;99467.50;6267797;20;2734661;-68
2022/06/24 10:38:43;;;;;;;;;6.33;4.33;;;;;31.03;28.46;99462.59;6304869;20;2738811;-67
2022/06/24 10:41:13;;;;;;;;;4.20;4.20;;;;;31.48;28.43;99462.19;6321708;20;2742945;-68
2022/06/24 10:43:44;;;;;;;;;4.00;4.00;;;;;31.03;28.11;99465.38;6290081;20;2743093;-66
2022/06/24 10:46:13;;;;;;;;;5.33;5.33;;;;;30.46;28.15;99451.72;6271400;20;2733573;-71
2022/06/24 10:48:55;;;;;;;;;5.00;5.00;;;;;30.94;28.49;99450.09;6304434;20;2741040;-67
2022/06/24 10:51:28;;;;;;;;;5.00;5.00;;;;;31.76;27.93;99444.06;6301465;20;2735681;-70
2022/06/24 10:54:09;;;;;;;;;2.80;2.80;;;;;31.94;27.11;99455.09;6323592;20;2751314;-66
2022/06/24 10:56:48;;;;;;;;;4.33;4.33;;;;;31.62;27.92;99447.00;6277610;20;2745085;-70
2022/06/24 10:59:20;;;;;;;;;4.67;4.67;;;;;31.89;26.85;99444.66;6307576;20;2735709;-67
2022/06/24 11:01:50;;;;;;;;;5.00;4.00;;;;;32.00;27.04;99442.19;6306966;20;2745137;-67
2022/06/24 11:04:30;;;;;;;;;4.00;4.00;;;;;31.27;27.34;99441.34;6307789;20;2743584;-70
2022/06/24 11:07:11;;;;;;;;;4.60;4.60;;;;;31.64;28.02;99439.31;6328458;20;2733597;-68
2022/06/24 11:09:40;;;;;;;;;5.33;5.33;;;;;31.46;27.36;99442.16;6273950;20;2739852;-68
2022/06/24 11:12:31;;;;;;;;;4.80;3.40;;;;;31.09;27.24;99441.38;6325366;20;2744025;-66
2022/06/24 11:15:01;;;;;;;;;5.33;5.33;;;;;31.64;26.62;99430.13;6275315;20;2745066;-68
2022/06/24 11:17:30;;;;;;;;;7.00;4.00;;;;;31.63;27.12;99428.47;6326975;20;2750295;-67
2022/06/24 11:20:00;;;;;;;;;3.60;2.60;;;;;31.01;26.84;99423.16;6298488;20;2739891;-67
2022/06/24 11:22:30;;;;;;;;;5.20;5.20;;;;;31.04;27.06;99422.66;6298509;20;2740888;-65
2022/06/24 11:25:03;;;;;;;;;6.67;5.33;;;;;30.88;27.24;99413.06;6267115;20;2742064;-67
2022/06/24 11:27:36;;;;;;;;;5.00;5.00;;;;;31.61;27.39;99409.25;6276578;20;2741936;-67
2022/06/24 11:30:09;;;;;;;;;6.67;5.67;;;;;31.55;27.21;99415.75;6304731;20;2740881;-68
2022/06/24 11:32:59;;;;;;;;;5.00;5.00;;;;;31.18;27.50;99410.31;6307963;20;2740887;-68
2022/06/24 11:35:30;;;;;;;;;10.00;5.33;;;;;31.22;28.49;99414.28;6303099;20;2762931;-69
2022/06/24 11:38:00;;;;;;;;;6.00;5.40;;;;;31.79;27.51;99407.47;6328273;20;2739936;-67
2022/06/24 11:40:33;;;;;;;;;4.60;4.60;;;;;31.59;27.32;99403.09;6295811;20;2734656;-66
2022/06/24 11:43:11;;;;;;;;;5.00;5.00;;;;;32.64;27.54;99408.91;6295711;20;2733609;-65
2022/06/24 11:45:48;;;;;;;;;5.80;5.20;;;;;32.25;26.18;99411.34;6300318;20;2741918;-66
2022/06/24 11:48:23;;;;;;;;;5.00;5.00;;;;;31.70;26.86;99410.59;6275163;20;2748176;-66
2022/06/24 11:50:52;;;;;;;;;5.33;5.33;;;;;31.38;26.84;99398.94;6306944;20;2744149;-66
2022/06/24 11:53:25;;;;;;;;;4.40;4.40;;;;;31.89;26.39;99402.19;6331206;20;2736797;-66
2022/06/24 11:55:55;;;;;;;;;3.20;3.20;;;;;31.55;25.45;99399.13;6296005;20;2733626;-69
2022/06/24 11:58:24;;;;;;;;;7.00;5.33;;;;;31.86;26.97;99408.19;6305684;20;2743048;-67
2022/06/24 12:00:54;;;;;;;;;4.67;4.67;;;;;31.68;26.25;99393.34;6307521;20;2734869;-66
2022/06/24 12:03:25;;;;;;;;;7.67;6.67;;;;;32.22;26.31;99397.97;6305331;20;2729424;-66
2022/06/24 12:05:54;;;;;;;;;5.00;5.00;;;;;32.00;26.32;99398.56;6306865;20;2733574;-68
2022/06/24 12:08:24;;;;;;;;;4.00;4.00;;;;;31.88;26.33;99387.41;6306544;20;2738887;-66
2022/06/24 12:10:55;;;;;;;;;5.67;5.67;;;;;32.12;26.78;99388.31;6303773;20;2728527;-66
2022/06/24 12:13:32;;;;;;;;;7.00;6.33;;;;;32.11;25.87;99388.53;6311634;20;2748196;-67
2022/06/24 12:16:01;;;;;;;;;6.00;6.00;;;;;32.19;25.56;99385.41;6305740;20;2734698;-68
2022/06/24 12:18:30;;;;;;;;;6.67;6.33;;;;;31.98;26.21;99384.06;6304537;20;2746135;-66
2022/06/24 12:21:08;;;;;;;;;5.00;5.00;;;;;31.93;25.07;99381.19;6331611;20;2769021;-68
2022/06/24 12:23:44;;;;;;;;;6.00;6.00;;;;;32.46;26.43;99387.66;6308117;20;2735723;-67
2022/06/24 12:26:26;;;;;;;;;3.00;3.00;;;;;32.10;24.86;99382.16;6301750;20;2741916;-67
2022/06/24 12:29:05;;;;;;;;;4.00;3.00;;;;;31.44;26.20;99372.19;6332460;20;2735830;-67
2022/06/24 12:31:35;;;;;;;;;5.00;5.00;;;;;32.12;26.52;99365.22;6276213;20;2734618;-67
2022/06/24 12:34:04;;;;;;;;;5.00;5.00;;;;;32.22;24.76;99365.47;6304338;20;2741942;-67
2022/06/24 12:36:47;;;;;;;;;5.00;5.00;;;;;32.12;25.88;99360.53;6303441;20;2739835;-67
2022/06/24 12:39:15;;;;;;;;;6.00;6.00;;;;;32.33;26.21;99360.97;6307272;20;2744000;-66
2022/06/24 12:41:48;;;;;;;;;5.00;5.00;;;;;31.70;26.07;99349.53;6300789;20;2743086;-67
2022/06/24 12:44:17;;;;;;;;;5.67;5.67;;;;;31.29;27.15;99342.09;6303677;20;2741949;-66
2022/06/24 12:52:45;;;;;;;;;5.33;4.67;;;;;31.94;26.87;99338.47;6301262;20;2745109;-68
2022/06/24 12:55:18;;;;;;;;;5.00;5.00;;;;;31.97;27.23;99337.13;6300740;20;2739895;-67
2022/06/24 12:57:46;;;;;;;;;8.50;5.50;;;;;31.88;26.92;99322.72;6309247;20;2627376;-69
2022/06/24 13:00:17;;;;;;;;;4.40;4.40;;;;;32.40;25.71;99331.09;6330340;20;2744038;-66
2022/06/24 13:02:49;;;;;;;;;4.67;4.67;;;;;32.03;25.95;99325.88;6269990;20;2734695;-66
2022/06/24 13:05:21;;;;;;;;;6.00;5.67;;;;;32.23;26.44;99331.03;6306023;20;2744116;-67
2022/06/24 13:07:50;;;;;;;;;4.67;4.67;;;;;31.89;26.44;99322.47;6303505;20;2732625;-67
2022/06/24 13:10:19;;;;;;;;;7.00;5.67;;;;;32.13;26.83;99322.47;6299593;20;2740095;-72
2022/06/24 13:12:48;;;;;;;;;5.00;5.00;;;;;32.01;25.54;99313.31;6305137;20;2742985;-67
2022/06/24 13:15:17;;;;;;;;;8.00;6.00;;;;;32.01;26.27;99311.38;6302441;20;2748185;-66
2022/06/24 13:17:45;;;;;;;;;6.00;4.00;;;;;31.98;26.11;99317.41;6296514;20;2752327;-67
2022/06/24 13:20:14;;;;;;;;;4.67;4.00;;;;;31.91;26.31;99313.88;6301149;20;2744046;-65
2022/06/24 13:22:43;;;;;;;;;5.67;5.67;;;;;31.93;25.72;99325.63;6302023;20;2739930;-68
2022/06/24 13:25:12;;;;;;;;;3.67;3.67;;;;;31.71;26.53;99317.91;6299433;20;2741978;-67
2022/06/24 13:27:41;;;;;;;;;4.67;4.67;;;;;31.47;26.99;99305.94;6302999;20;2740920;-68
2022/06/24 13:30:13;;;;;;;;;12.67;7.67;;;;;31.61;25.97;99309.31;6301057;20;2771333;-67
2022/06/24 13:32:41;;;;;;;;;6.00;6.00;;;;;31.56;26.12;99292.53;6300245;20;2736762;-70
2022/06/24 13:35:11;;;;;;;;;5.00;5.00;;;;;31.59;26.25;99286.50;6301089;20;2743112;-69
2022/06/24 13:37:41;;;;;;;;;6.67;5.00;;;;;31.35;26.76;99287.56;6298880;20;2737806;-65
2022/06/24 13:40:11;;;;;;;;;6.20;5.40;;;;;31.69;27.13;99286.75;6316616;20;2741967;-68
2022/06/24 13:42:40;;;;;;;;;7.00;7.00;;;;;31.51;25.82;99278.53;6270872;20;2748234;-67
2022/06/24 13:45:09;;;;;;;;;6.00;6.00;;;;;31.83;26.73;99270.66;6297837;20;2736812;-65
2022/06/24 13:47:38;;;;;;;;;4.40;4.40;;;;;32.07;26.95;99270.66;6319878;20;2750294;-69
2022/06/24 13:50:08;;;;;;;;;6.00;5.67;;;;;31.82;26.47;99268.16;6273760;20;2746140;-68
2022/06/24 13:52:37;;;;;;;;;5.00;5.00;;;;;31.38;26.33;99262.13;6300765;20;2750268;-68
2022/06/24 13:55:06;;;;;;;;;5.00;5.00;;;;;31.83;26.47;99258.72;6296262;20;2740906;-68
2022/06/24 13:57:36;;;;;;;;;7.33;5.67;;;;;31.83;26.62;99258.72;6299972;20;2745109;-69
2022/06/24 14:00:06;;;;;;;;;4.67;4.67;;;;;31.96;26.16;99258.50;6298552;20;2742961;-68
2022/06/24 14:02:35;;;;;;;;;4.67;4.67;;;;;32.54;26.07;99265.81;6298499;20;2745150;-69
2022/06/24 14:05:05;;;;;;;;;3.20;3.20;;;;;31.81;25.92;99261.75;6325622;20;2736799;-71
2022/06/24 14:07:33;;;;;;;;;4.33;4.33;;;;;31.94;25.50;99249.59;6272544;20;2743999;-69
2022/06/24 14:10:04;;;;;;;;;3.00;2.00;;;;;31.85;26.76;99256.56;6298626;20;2749315;-69
2022/06/24 14:12:55;;;;;;;;;9.33;6.33;;;;;32.06;26.33;99263.44;6301762;20;2738906;-67
2022/06/24 14:15:24;;;;;;;;;2.40;2.40;;;;;31.62;25.83;99258.25;6324051;20;2756515;-69
2022/06/24 14:17:54;;;;;;;;;6.00;6.00;;;;;31.41;26.18;99247.78;6267565;20;2739840;-70
2022/06/24 14:20:25;;;;;;;;;6.33;6.33;;;;;31.82;26.74;99257.06;6303158;20;2732573;-69
2022/06/24 14:25:40;;;;;;;;;6.00;5.33;;;;;31.35;26.40;99246.78;6297684;20;2742996;-68
2022/06/24 14:28:10;;;;;;;;;3.80;3.80;;;;;31.56;26.62;99247.31;6327246;20;2715942;-69
2022/06/24 14:30:39;;;;;;;;;6.00;6.00;;;;;30.94;26.56;99244.91;6306460;20;2733725;-68
2022/06/24 14:33:07;;;;;;;;;7.67;7.00;;;;;31.50;25.78;99246.34;6306149;20;2728410;-69
2022/06/24 14:35:38;;;;;;;;;4.60;4.60;;;;;31.58;26.63;99240.41;6332305;20;2730527;-70
2022/06/24 14:40:54;;;;;;;;;7.00;5.00;;;;;31.60;26.47;99243.81;6306583;20;2734712;-70
2022/06/24 14:43:32;;;;;;;;;6.33;5.33;;;;;32.07;26.01;99243.75;6307680;20;2738895;-69
2022/06/24 14:46:01;;;;;;;;;5.33;5.33;;;;;31.90;25.31;99228.91;6306985;20;2738300;-71
2022/06/24 14:48:29;;;;;;;;;4.00;4.00;;;;;31.82;25.28;99227.34;6308197;20;2737812;-68
2022/06/24 14:50:58;;;;;;;;;7.00;6.67;;;;;31.91;25.75;99225.03;6317266;20;2748184;-68
2022/06/24 14:53:26;;;;;;;;;5.00;5.00;;;;;31.81;25.93;99228.44;6303900;20;2735683;-68
2022/06/24 14:55:56;;;;;;;;;6.67;6.67;;;;;31.94;26.38;99230.16;6305613;20;2744048;-69
2022/06/24 14:58:25;;;;;;;;;4.00;3.60;;;;;31.79;25.35;99224.22;6326647;20;2751425;-70
2022/06/24 15:00:58;;;;;;;;;5.67;5.67;;;;;32.13;24.71;99223.31;6274851;20;2733600;-68
2022/06/24 15:03:29;;;;;;;;;4.00;4.00;;;;;32.21;25.15;99224.88;6309229;20;2745702;-69
2022/06/24 15:05:58;;;;;;;;;5.33;5.33;;;;;32.07;25.72;99215.97;6306129;20;2737815;-69
2022/06/24 15:08:27;;;;;;;;;4.60;4.60;;;;;32.18;25.76;99213.38;6328257;20;2736908;-69
2022/06/24 15:10:56;;;;;;;;;6.00;6.00;;;;;32.44;25.12;99220.28;6275804;20;2737784;-69
2022/06/24 15:13:25;;;;;;;;;6.00;5.67;;;;;32.39;25.33;99207.16;6305582;20;2737785;-67
2022/06/24 15:15:54;;;;;;;;;6.00;6.00;;;;;31.73;26.09;99219.63;6302209;20;2737891;-67
2022/06/24 15:18:22;;;;;;;;;6.33;5.00;;;;;32.09;25.32;99212.94;6306637;20;2743070;-68
2022/06/24 15:20:51;;;;;;;;;7.00;5.00;;;;;32.33;25.25;99205.34;6306435;20;2736767;-70
2022/06/24 15:23:33;;;;;;;;;5.60;3.80;;;;;31.89;24.72;99202.25;6327752;20;2754451;-68
2022/06/24 15:26:02;;;;;;;;;7.33;6.33;;;;;32.20;25.04;99202.88;6274673;20;2742104;-68
2022/06/24 15:28:30;;;;;;;;;4.00;4.00;;;;;31.53;25.31;99204.22;6316272;20;2742979;-66
2022/06/24 15:30:59;;;;;;;;;5.67;5.67;;;;;31.61;26.57;99198.28;6312349;20;2736793;-70
2022/06/24 15:33:28;;;;;;;;;7.67;7.67;;;;;31.96;25.58;99200.16;6306820;20;2741921;-69
2022/06/24 15:35:57;;;;;;;;;4.33;4.33;;;;;31.91;26.24;99206.44;6307562;20;2723184;-69
2022/06/24 15:38:25;;;;;;;;;7.00;6.67;;;;;31.96;26.42;99211.28;6303355;20;2748192;-70
2022/06/24 15:40:54;;;;;;;;;6.67;5.00;;;;;31.63;25.78;99207.22;6309137;20;2729560;-68
2022/06/24 15:43:23;;;;;;;;;4.00;4.00;;;;;31.81;26.25;99203.47;6307116;20;2738826;-68
2022/06/24 15:45:52;;;;;;;;;5.67;5.67;;;;;31.88;25.82;99194.97;6301468;20;2739849;-73
2022/06/24 15:48:20;;;;;;;;;5.00;5.00;;;;;31.95;25.03;99197.66;6308487;20;2743013;-71
2022/06/24 15:50:49;;;;;;;;;6.00;6.00;;;;;31.89;25.22;99193.91;6305545;20;2744297;-71
2022/06/24 15:53:24;;;;;;;;;3.00;3.00;;;;;31.59;25.89;99181.03;6302710;20;2750452;-70
2022/06/24 15:55:52;;;;;;;;;6.00;6.00;;;;;32.10;25.68;99190.47;6305045;20;2736807;-71
2022/06/24 15:58:21;;;;;;;;;4.67;4.67;;;;;31.59;26.20;99174.66;6314759;20;2729425;-69
2022/06/24 16:00:50;;;;;;;;;2.80;2.80;;;;;31.82;26.38;99176.53;6326968;20;2745161;-67
2022/06/24 16:03:19;;;;;;;;;5.67;5.67;;;;;31.97;25.54;99182.44;6276005;20;2741922;-68
2022/06/24 16:05:48;;;;;;;;;6.67;5.00;;;;;31.47;26.53;99171.91;6310786;20;2739881;-67
2022/06/24 16:08:16;;;;;;;;;5.33;4.00;;;;;31.28;27.36;99173.91;6304699;20;2731547;-69
2022/06/24 16:10:45;;;;;;;;;7.00;5.67;;;;;31.39;26.97;99180.59;6303976;20;2739932;-69
2022/06/24 16:13:14;;;;;;;;;9.00;6.00;;;;;31.75;26.62;99184.97;6305026;20;2740912;-66
2022/06/24 16:15:43;;;;;;;;;4.80;4.80;;;;;31.80;26.34;99175.94;6328679;20;2726334;-68
2022/06/24 16:18:12;;;;;;;;;7.00;7.00;;;;;31.62;26.88;99172.22;6307758;20;2734767;-68
2022/06/24 16:20:40;;;;;;;;;6.00;4.33;;;;;31.70;26.22;99174.63;6306602;20;2742985;-69
2022/06/24 16:23:09;;;;;;;;;7.00;7.00;;;;;31.74;26.51;99166.66;6301140;20;2734642;-69
2022/06/24 16:28:40;;;;;;;;;6.00;6.00;;;;;31.49;25.74;99153.06;6325908;20;2744009;-68
2022/06/24 16:31:18;;;;;;;;;5.67;5.67;;;;;31.88;25.72;99153.31;6271327;20;2744079;-68
2022/06/24 16:33:51;;;;;;;;;6.00;6.00;;;;;30.93;27.49;99138.72;6304888;20;2744023;-67
2022/06/24 16:36:21;;;;;;;;;7.33;7.33;;;;;30.23;28.89;99144.97;6307108;20;2746136;-68
2022/06/24 16:38:56;;;;;;;;;4.00;4.00;;;;;30.37;27.56;99142.84;6301097;20;2748169;-69
2022/06/24 16:41:25;;;;;;;;;8.00;6.00;;;;;30.05;29.48;99137.53;6304306;20;2748204;-68
2022/06/24 16:43:54;;;;;;;;;7.67;5.00;;;;;29.96;29.41;99134.25;6303163;20;2744066;-68
2022/06/24 16:46:22;;;;;;;;;10.00;6.00;;;;;30.77;27.83;99143.00;6303784;20;2757582;-67
2022/06/24 16:48:51;;;;;;;;;8.00;6.33;;;;;30.78;28.59;99141.94;6308060;20;2742007;-70
2022/06/24 16:51:19;;;;;;;;;8.00;6.00;;;;;30.27;29.21;99129.53;6303175;20;2748169;-68
2022/06/24 16:53:48;;;;;;;;;6.33;6.33;;;;;30.43;27.99;99133.56;6299893;20;2737772;-68
2022/06/24 16:56:17;;;;;;;;;9.00;6.00;;;;;30.62;28.27;99139.84;6305846;20;2737777;-67
2022/06/24 16:58:46;;;;;;;;;7.67;6.00;;;;;30.03;30.15;99139.66;6302514;20;2741920;-67
2022/06/24 17:01:14;;;;;;;;;8.00;7.00;;;;;29.61;30.62;99134.03;6306819;20;2733753;-66
2022/06/24 17:03:43;;;;;;;;;6.00;6.00;;;;;30.08;30.05;99141.75;6305877;20;2732683;-68
2022/06/24 17:06:12;;;;;;;;;6.00;6.00;;;;;29.89;30.71;99144.56;6301409;20;2744011;-67
2022/06/24 17:08:40;;;;;;;;;8.00;5.00;;;;;29.82;31.46;99154.03;6301663;20;2734678;-67
2022/06/24 17:11:10;;;;;;;;;9.20;6.00;;;;;29.61;31.46;99158.09;6327302;20;2739953;-69
2022/06/24 17:13:39;;;;;;;;;9.20;6.00;;;;;29.58;31.07;99150.25;6298493;20;2734728;-66
2022/06/24 17:16:08;;;;;;;;;6.33;6.33;;;;;29.36;31.34;99159.00;6274996;20;2741067;-68
2022/06/24 17:18:37;;;;;;;;;6.60;5.80;;;;;29.20;31.88;99157.69;6326169;20;2732576;-66
2022/06/24 17:21:08;;;;;;;;;8.20;7.00;;;;;29.32;32.33;99146.72;6295277;20;2739845;-70
2022/06/24 17:23:36;;;;;;;;;7.67;6.67;;;;;29.31;31.24;99156.94;6272980;20;2752372;-67
2022/06/24 17:26:06;;;;;;;;;7.60;6.80;;;;;29.32;32.66;99161.38;6325808;20;2744277;-67
2022/06/24 17:28:35;;;;;;;;;9.00;7.00;;;;;29.48;32.53;99164.63;6272344;20;2748703;-67
2022/06/24 17:31:04;;;;;;;;;9.67;6.67;;;;;29.27;33.73;99160.38;6298603;20;2754470;-68
2022/06/24 17:33:32;;;;;;;;;13.67;7.33;;;;;29.32;34.35;99155.00;6309337;20;2762748;-68
2022/06/24 17:36:01;;;;;;;;;7.33;7.00;;;;;29.39;33.65;99161.31;6305658;20;2733595;-64
2022/06/24 17:38:29;;;;;;;;;8.00;8.00;;;;;29.17;34.69;99171.13;6303257;20;2740876;-68
2022/06/24 17:40:58;;;;;;;;;5.33;5.33;;;;;29.02;32.92;99174.22;6302924;20;2741911;-68
2022/06/24 17:43:26;;;;;;;;;7.00;7.00;;;;;28.81;33.11;99169.94;6304760;20;2749944;-66
2022/06/24 17:45:55;;;;;;;;;8.67;7.00;;;;;28.41;34.09;99162.78;6304341;20;2744060;-68
2022/06/24 17:48:24;;;;;;;;;13.33;12.00;;;;;28.23;33.63;99166.28;6299674;20;3513961;-68
2022/06/24 17:50:52;;;;;;;;;15.00;15.00;;;;;28.35;35.45;99165.56;6266968;20;2809632;-68
2022/06/24 17:53:24;;;;;;;;;15.00;13.00;;;;;28.17;34.63;99166.31;6267556;20;2801422;-67
2022/06/24 17:55:53;;;;;;;;;21.00;19.67;;;;;28.04;35.36;99170.00;6268120;20;3576318;-66
2022/06/24 17:58:22;;;;;;;;;20.00;19.67;;;;;27.84;34.20;99164.59;6270709;20;3579511;-68
2022/06/24 18:00:50;;;;;;;;;23.33;21.67;;;;;27.94;34.86;99153.09;6270035;20;3591920;-67
2022/06/24 18:03:19;;;;;;;;;14.00;13.67;;;;;27.78;34.91;99158.00;6266193;20;2483697;-66
2022/06/24 18:05:48;;;;;;;;;13.67;13.67;;;;;27.54;35.14;99153.22;6304638;20;2810706;-67
2022/06/24 18:08:17;;;;;;;;;11.00;11.00;;;;;27.47;34.80;99144.13;6301528;20;2792041;-66
2022/06/24 18:10:48;;;;;;;;;14.67;13.00;;;;;27.35;35.85;99149.47;6299262;20;3534713;-68
2022/06/24 18:13:17;;;;;;;;;20.00;17.00;;;;;27.43;35.73;99146.47;6266982;20;2775258;-67
2022/06/24 18:15:46;;;;;;;;;20.67;20.67;;;;;27.11;35.86;99140.78;6271662;20;3583612;-66
2022/06/24 18:18:15;;;;;;;;;18.50;17.00;;;;;27.19;36.15;99139.75;6263245;20;2835713;-68
2022/06/24 18:20:43;;;;;;;;;11.33;9.67;;;;;27.09;36.43;99140.19;6268232;20;3505613;-67